Time;durP1;ratioP1;P1;durP2;ratioP2;P2;SDS_P1;SDS_P2;PMS_P1;PMS_P2;Temp;Humidity;BMP_temperature;BMP_pressure;BME280_temperature;BME280_humidity;BME280_pressure;Samples;Min_cycle;Max_cycle;Signal;HPM_P1;HPM_P2
2023/06/30 00:01:48;;;;;;;3.85;2.13;;;23.30;95.20;;;;;;5082849;28;45570;-69
2023/06/30 00:04:16;;;;;;;3.28;2.25;;;23.30;95.20;;;;;;5082841;28;45286;-69
2023/06/30 00:06:43;;;;;;;3.47;1.80;;;23.30;95.20;;;;;;5081723;27;45353;-69
2023/06/30 00:09:10;;;;;;;3.63;1.88;;;23.30;95.20;;;;;;5082711;27;47557;-69
2023/06/30 00:11:39;;;;;;;2.28;1.80;;;23.30;95.20;;;;;;5082781;28;45187;-69
2023/06/30 00:14:06;;;;;;;2.85;1.83;;;23.30;95.20;;;;;;5081916;28;45423;-69
2023/06/30 00:16:34;;;;;;;2.45;1.92;;;23.30;95.30;;;;;;5081221;28;45206;-69
2023/06/30 00:19:04;;;;;;;2.28;1.70;;;23.30;95.20;;;;;;5080443;28;45443;-69
2023/06/30 00:21:31;;;;;;;3.03;1.80;;;23.30;95.20;;;;;;5082490;28;46238;-69
2023/06/30 00:24:01;;;;;;;2.25;1.58;;;23.30;95.20;;;;;;5081851;28;45484;-69
2023/06/30 00:26:28;;;;;;;4.50;1.95;;;23.30;95.50;;;;;;5083179;28;45713;-69
2023/06/30 00:28:55;;;;;;;3.00;1.60;;;23.30;95.60;;;;;;5080756;28;46316;-70
2023/06/30 00:31:22;;;;;;;2.67;1.48;;;23.20;95.40;;;;;;5082254;28;45508;-69
2023/06/30 00:33:50;;;;;;;2.88;1.60;;;23.30;95.30;;;;;;5081826;28;45425;-70
2023/06/30 00:36:17;;;;;;;2.25;1.70;;;23.20;95.20;;;;;;5080782;27;45543;-69
2023/06/30 00:38:44;;;;;;;2.22;1.63;;;23.30;95.20;;;;;;5082846;27;46281;-69
2023/06/30 00:41:11;;;;;;;2.10;1.40;;;23.20;95.20;;;;;;5084033;27;45504;-71
2023/06/30 00:43:38;;;;;;;2.38;1.67;;;23.20;95.20;;;;;;5081401;28;45440;-69
2023/06/30 00:46:07;;;;;;;3.03;1.42;;;23.20;95.50;;;;;;5082154;28;45433;-69
2023/06/30 00:48:34;;;;;;;2.00;1.50;;;23.20;95.60;;;;;;5082439;28;45423;-70
2023/06/30 00:51:02;;;;;;;2.08;1.40;;;23.20;95.40;;;;;;5082593;28;45585;-70
2023/06/30 00:53:29;;;;;;;3.25;1.70;;;23.30;95.90;;;;;;5081968;28;45351;-69
2023/06/30 00:55:55;;;;;;;1.65;1.40;;;23.20;95.80;;;;;;5080824;28;45321;-69
2023/06/30 00:58:22;;;;;;;2.08;1.42;;;23.20;96.20;;;;;;5080488;28;47053;-69
2023/06/30 01:00:53;;;;;;;2.05;1.40;;;23.20;96.30;;;;;;5081102;28;45492;-69
2023/06/30 01:03:25;;;;;;;4.85;1.80;;;23.20;96.10;;;;;;5080636;28;45383;-70
2023/06/30 01:05:56;;;;;;;1.90;1.50;;;23.20;95.70;;;;;;5078626;28;45352;-69
2023/06/30 01:08:29;;;;;;;4.43;1.33;;;23.20;95.70;;;;;;5081223;28;46276;-69
2023/06/30 01:10:57;;;;;;;2.42;1.52;;;23.20;95.50;;;;;;5081406;28;45742;-69
2023/06/30 01:13:25;;;;;;;2.20;1.60;;;23.20;95.40;;;;;;5077822;28;45418;-69
2023/06/30 01:15:53;;;;;;;4.47;1.70;;;23.20;95.40;;;;;;5081681;28;45570;-69
2023/06/30 01:18:21;;;;;;;2.80;1.60;;;23.20;95.30;;;;;;5082832;28;46616;-70
2023/06/30 01:20:49;;;;;;;3.30;1.73;;;23.20;95.30;;;;;;5079493;27;45523;-70
2023/06/30 01:23:24;;;;;;;3.92;1.75;;;23.20;95.50;;;;;;5082806;27;45448;-69
2023/06/30 01:25:53;;;;;;;3.00;1.63;;;23.20;95.70;;;;;;5078633;27;45506;-70
2023/06/30 01:28:20;;;;;;;1.83;1.20;;;23.20;95.80;;;;;;5082826;27;46627;-69
2023/06/30 01:30:47;;;;;;;2.47;1.60;;;23.20;96.00;;;;;;5078971;28;45389;-69
2023/06/30 01:33:14;;;;;;;1.92;1.40;;;23.20;96.00;;;;;;5081495;28;45662;-70
2023/06/30 01:35:40;;;;;;;3.45;1.73;;;23.20;95.80;;;;;;5080706;28;45436;-70
2023/06/30 01:38:07;;;;;;;3.63;1.58;;;23.20;95.50;;;;;;5073865;28;46272;-70
2023/06/30 01:40:34;;;;;;;3.25;1.52;;;23.20;95.90;;;;;;5081719;28;45235;-70
2023/06/30 01:43:03;;;;;;;2.08;1.23;;;23.20;95.60;;;;;;5080921;28;45403;-69
2023/06/30 01:45:30;;;;;;;1.40;1.27;;;23.20;95.60;;;;;;5081109;28;45541;-69
2023/06/30 01:47:58;;;;;;;2.17;1.48;;;23.20;95.50;;;;;;5080666;28;45262;-70
2023/06/30 01:50:29;;;;;;;1.88;1.10;;;23.20;95.60;;;;;;5080963;28;45420;-70
2023/06/30 01:52:56;;;;;;;2.17;1.10;;;23.20;95.70;;;;;;5081140;28;45531;-70
2023/06/30 01:55:23;;;;;;;3.30;1.52;;;23.20;95.20;;;;;;5081966;28;45711;-69
2023/06/30 01:57:50;;;;;;;2.38;1.30;;;23.20;95.50;;;;;;5080811;28;48071;-70
2023/06/30 02:00:18;;;;;;;2.53;1.30;;;23.20;95.80;;;;;;5080114;28;45329;-69
2023/06/30 02:02:45;;;;;;;3.03;1.60;;;23.20;95.70;;;;;;5080670;28;45422;-69
2023/06/30 02:05:12;;;;;;;2.03;1.48;;;23.20;95.70;;;;;;5079614;28;45486;-70
2023/06/30 02:07:39;;;;;;;1.98;1.20;;;23.20;95.50;;;;;;5081284;27;47667;-69
2023/06/30 02:10:07;;;;;;;1.35;1.20;;;23.20;95.20;;;;;;5077772;28;45770;-69
2023/06/30 02:12:35;;;;;;;2.53;1.50;;;23.20;95.20;;;;;;5079753;27;45476;-70
2023/06/30 02:15:02;;;;;;;2.17;1.58;;;23.20;95.20;;;;;;5079957;28;45427;-69
2023/06/30 02:17:32;;;;;;;2.20;1.30;;;23.20;95.30;;;;;;5080203;28;46581;-70
2023/06/30 02:19:59;;;;;;;2.03;1.30;;;23.20;95.20;;;;;;5082108;28;45552;-70
2023/06/30 02:22:26;;;;;;;1.45;1.20;;;23.20;95.20;;;;;;5080569;28;45407;-69
2023/06/30 02:24:56;;;;;;;1.75;1.20;;;23.20;95.20;;;;;;5082240;28;45401;-69
2023/06/30 02:27:22;;;;;;;1.38;1.27;;;23.20;95.20;;;;;;5073086;28;47251;-69
2023/06/30 02:29:49;;;;;;;2.13;1.40;;;23.20;95.20;;;;;;5080904;28;45609;-70
2023/06/30 02:32:16;;;;;;;2.08;1.50;;;23.20;95.60;;;;;;5079162;28;45481;-70
2023/06/30 02:34:44;;;;;;;1.98;1.35;;;23.20;95.90;;;;;;5080814;28;45571;-70
2023/06/30 02:37:11;;;;;;;1.63;1.20;;;23.20;95.80;;;;;;5079942;28;46694;-70
2023/06/30 02:39:37;;;;;;;2.28;1.30;;;23.20;95.80;;;;;;5079744;28;45447;-69
2023/06/30 02:42:05;;;;;;;1.25;1.08;;;23.20;95.80;;;;;;5080243;28;45602;-69
2023/06/30 02:44:31;;;;;;;1.52;1.20;;;23.20;95.90;;;;;;5080549;28;45295;-70
2023/06/30 02:46:59;;;;;;;2.65;1.17;;;23.20;95.90;;;;;;5080364;28;46340;-70
2023/06/30 02:49:25;;;;;;;1.77;1.25;;;23.20;95.50;;;;;;5079524;28;45383;-70
2023/06/30 02:51:53;;;;;;;2.95;1.40;;;23.20;95.90;;;;;;5081240;28;45487;-69
2023/06/30 02:54:20;;;;;;;2.03;1.20;;;23.20;95.60;;;;;;5076017;28;45549;-69
2023/06/30 02:56:47;;;;;;;1.63;1.23;;;23.20;95.50;;;;;;5077031;28;46649;-70
2023/06/30 02:59:14;;;;;;;2.13;1.60;;;23.20;95.90;;;;;;5080755;28;45425;-69
2023/06/30 03:01:41;;;;;;;2.22;1.58;;;23.20;95.40;;;;;;5082977;28;45348;-69
2023/06/30 03:04:07;;;;;;;3.15;1.77;;;23.20;95.60;;;;;;5082202;28;45345;-69
2023/06/30 03:06:34;;;;;;;3.33;1.80;;;23.20;95.80;;;;;;5079195;28;45398;-70
2023/06/30 03:09:03;;;;;;;2.28;1.80;;;23.20;95.20;;;;;;5079798;28;45434;-70
2023/06/30 03:11:30;;;;;;;3.50;1.77;;;23.20;95.20;;;;;;5082959;28;45298;-70
2023/06/30 03:13:56;;;;;;;3.25;1.80;;;23.20;95.20;;;;;;5079201;28;46091;-69
2023/06/30 03:16:23;;;;;;;3.28;1.60;;;23.20;95.20;;;;;;5082007;28;45390;-69
2023/06/30 03:18:50;;;;;;;1.70;1.60;;;23.20;95.20;;;;;;5083371;28;45511;-69
2023/06/30 03:21:17;;;;;;;2.33;1.38;;;23.20;95.20;;;;;;5082883;28;45516;-70
2023/06/30 03:23:45;;;;;;;2.40;1.70;;;23.20;95.20;;;;;;5082954;28;45657;-70
2023/06/30 03:26:14;;;;;;;3.35;2.10;;;23.20;95.40;;;;;;5082300;28;46541;-69
2023/06/30 03:28:40;;;;;;;2.80;1.70;;;23.10;95.20;;;;;;5083641;28;45764;-69
2023/06/30 03:31:07;;;;;;;2.78;2.00;;;23.20;95.20;;;;;;5083493;27;45519;-69
2023/06/30 03:33:34;;;;;;;2.83;1.73;;;23.10;95.20;;;;;;5081678;28;45601;-69
2023/06/30 03:36:01;;;;;;;3.28;1.85;;;23.20;95.30;;;;;;5082623;28;46413;-69
2023/06/30 03:38:28;;;;;;;1.88;1.55;;;23.10;95.30;;;;;;5082263;28;45282;-69
2023/06/30 03:40:55;;;;;;;2.38;1.40;;;23.20;95.60;;;;;;5084554;28;45373;-69
2023/06/30 03:43:23;;;;;;;3.60;1.90;;;23.10;95.60;;;;;;5089295;27;45348;-69
2023/06/30 03:45:50;;;;;;;2.50;1.88;;;23.20;95.50;;;;;;5084065;28;47607;-69
2023/06/30 03:48:17;;;;;;;4.38;2.10;;;23.10;95.40;;;;;;5081669;28;45996;-70
2023/06/30 03:50:44;;;;;;;2.67;1.98;;;23.20;95.40;;;;;;5084438;28;45485;-70
2023/06/30 03:53:11;;;;;;;2.92;1.73;;;23.10;95.20;;;;;;5084784;28;45308;-70
2023/06/30 03:55:37;;;;;;;2.65;1.95;;;23.10;95.20;;;;;;5082908;28;45490;-69
2023/06/30 03:58:04;;;;;;;2.10;1.88;;;23.20;95.60;;;;;;5084665;28;45440;-70
2023/06/30 04:00:32;;;;;;;2.58;1.80;;;23.10;95.30;;;;;;5079559;27;45563;-69
2023/06/30 04:02:59;;;;;;;2.53;1.85;;;23.10;95.20;;;;;;5077678;28;45519;-71
2023/06/30 04:05:26;;;;;;;3.15;1.95;;;23.10;95.20;;;;;;5080002;28;48380;-69
2023/06/30 04:07:53;;;;;;;2.05;1.75;;;23.20;95.20;;;;;;5076268;27;45460;-69
2023/06/30 04:10:20;;;;;;;3.08;1.83;;;23.20;95.20;;;;;;5078258;27;45586;-70
2023/06/30 04:12:47;;;;;;;2.90;1.90;;;23.20;95.20;;;;;;5086074;27;45482;-70
2023/06/30 04:15:13;;;;;;;2.03;1.60;;;23.10;95.20;;;;;;5083295;27;47534;-69
2023/06/30 04:17:41;;;;;;;2.13;1.80;;;23.20;95.00;;;;;;5084347;27;45339;-69
2023/06/30 04:20:09;;;;;;;2.92;1.83;;;23.20;95.00;;;;;;5083830;27;45356;-70
2023/06/30 04:22:37;;;;;;;3.00;2.10;;;23.10;95.00;;;;;;5078261;28;45630;-69
2023/06/30 04:25:04;;;;;;;2.35;1.65;;;23.10;95.00;;;;;;5082646;28;45487;-69
2023/06/30 04:27:31;;;;;;;1.65;1.42;;;23.10;95.00;;;;;;5083708;28;45339;-70
2023/06/30 04:29:58;;;;;;;1.58;1.30;;;23.10;94.80;;;;;;5083943;28;45414;-69
2023/06/30 04:32:25;;;;;;;3.38;1.52;;;23.10;94.90;;;;;;5084223;28;45398;-69
2023/06/30 04:34:53;;;;;;;2.22;1.58;;;23.20;95.00;;;;;;5081815;28;47331;-70
2023/06/30 04:37:19;;;;;;;4.50;1.58;;;23.10;95.00;;;;;;5083651;28;45716;-69
2023/06/30 04:39:47;;;;;;;1.92;1.33;;;23.10;95.20;;;;;;5079910;28;45317;-69
2023/06/30 04:42:14;;;;;;;1.73;1.40;;;23.10;95.20;;;;;;5075983;28;45320;-69
2023/06/30 04:44:41;;;;;;;1.75;1.58;;;23.10;94.80;;;;;;5073197;28;48417;-70
2023/06/30 04:47:08;;;;;;;1.60;1.38;;;23.10;94.80;;;;;;5085027;28;45481;-73
2023/06/30 04:49:35;;;;;;;2.58;1.48;;;23.10;94.80;;;;;;5086686;28;45400;-72
2023/06/30 04:52:04;;;;;;;1.38;1.20;;;23.10;94.70;;;;;;5087399;28;45194;-72
2023/06/30 04:54:31;;;;;;;1.67;1.30;;;23.10;95.20;;;;;;5086871;28;47295;-71
2023/06/30 04:56:58;;;;;;;2.53;1.45;;;23.10;94.70;;;;;;5086273;28;45938;-71
2023/06/30 04:59:25;;;;;;;2.30;1.60;;;23.10;94.60;;;;;;5082722;28;45455;-69
2023/06/30 05:01:51;;;;;;;2.25;1.40;;;23.10;94.40;;;;;;5076267;28;45362;-70
2023/06/30 05:04:18;;;;;;;1.88;1.60;;;23.10;94.30;;;;;;5082354;28;46593;-70
2023/06/30 05:06:46;;;;;;;2.65;1.40;;;23.10;93.70;;;;;;5075841;28;45363;-70
2023/06/30 05:09:14;;;;;;;2.58;1.35;;;23.10;93.60;;;;;;5081730;28;45242;-70
2023/06/30 05:11:41;;;;;;;1.48;1.25;;;23.10;93.40;;;;;;5083025;28;45506;-70
2023/06/30 05:14:07;;;;;;;2.47;1.65;;;23.10;93.30;;;;;;5082394;28;46594;-70
2023/06/30 05:16:34;;;;;;;4.32;1.60;;;23.10;93.20;;;;;;5080685;28;45428;-70
2023/06/30 05:19:01;;;;;;;2.65;1.65;;;23.10;93.10;;;;;;5082735;28;45401;-70
2023/06/30 05:21:28;;;;;;;4.00;1.50;;;23.10;93.10;;;;;;5079152;28;45437;-70
2023/06/30 05:23:55;;;;;;;3.42;1.50;;;23.10;93.30;;;;;;5082597;27;45371;-70
2023/06/30 05:26:23;;;;;;;1.83;1.25;;;23.10;93.20;;;;;;5078788;28;45465;-73
2023/06/30 05:28:50;;;;;;;1.48;1.13;;;23.10;93.20;;;;;;5086169;28;45441;-72
2023/06/30 05:31:17;;;;;;;3.20;1.40;;;23.10;93.10;;;;;;5086154;28;45252;-73
2023/06/30 05:33:44;;;;;;;2.47;1.30;;;23.20;93.20;;;;;;5085502;28;48338;-72
2023/06/30 05:36:11;;;;;;;2.95;1.35;;;23.20;93.20;;;;;;5080638;28;45422;-71
2023/06/30 05:38:37;;;;;;;2.50;1.20;;;23.20;93.10;;;;;;5082962;28;45288;-70
2023/06/30 05:41:04;;;;;;;3.03;1.25;;;23.20;93.10;;;;;;5083400;28;45572;-69
2023/06/30 05:43:32;;;;;;;2.50;1.42;;;23.20;93.00;;;;;;5079540;28;46270;-70
2023/06/30 05:45:59;;;;;;;3.17;1.30;;;23.20;93.40;;;;;;5076330;28;45466;-70
2023/06/30 05:48:26;;;;;;;1.35;1.10;;;23.20;92.90;;;;;;5080994;28;45414;-71
2023/06/30 05:50:53;;;;;;;3.30;1.27;;;23.20;93.00;;;;;;5083154;28;45452;-69
2023/06/30 05:53:19;;;;;;;2.25;1.25;;;23.20;92.90;;;;;;5082631;28;46386;-70
2023/06/30 05:55:46;;;;;;;2.50;1.02;;;23.20;92.90;;;;;;5078644;28;45366;-70
2023/06/30 05:58:13;;;;;;;2.60;1.38;;;23.20;92.90;;;;;;5082933;28;45371;-70
2023/06/30 06:00:41;;;;;;;1.50;1.10;;;23.20;92.80;;;;;;5081433;28;45345;-70
2023/06/30 06:03:08;;;;;;;2.30;0.90;;;23.20;92.80;;;;;;5079964;28;47661;-70
2023/06/30 06:05:34;;;;;;;3.45;1.20;;;23.20;92.80;;;;;;5082812;28;45495;-70
2023/06/30 06:08:01;;;;;;;1.92;1.17;;;23.20;92.70;;;;;;5082579;28;45400;-70
2023/06/30 06:10:29;;;;;;;4.22;1.40;;;23.20;92.60;;;;;;5082142;28;45375;-70
2023/06/30 06:12:56;;;;;;;2.78;0.90;;;23.20;92.70;;;;;;5078686;28;48648;-69
2023/06/30 06:15:23;;;;;;;2.90;1.08;;;23.20;92.70;;;;;;5082298;28;45351;-69
2023/06/30 06:17:51;;;;;;;1.20;1.00;;;23.20;92.70;;;;;;5082707;28;45376;-69
2023/06/30 06:20:18;;;;;;;1.30;1.00;;;23.20;92.70;;;;;;5081868;28;45589;-70
2023/06/30 06:22:44;;;;;;;1.80;1.15;;;23.20;92.70;;;;;;5080517;28;46318;-70
2023/06/30 06:25:11;;;;;;;1.60;0.90;;;23.20;92.80;;;;;;5082183;28;45708;-70
2023/06/30 06:27:38;;;;;;;1.55;0.90;;;23.20;92.70;;;;;;5082630;28;45324;-70
2023/06/30 06:30:06;;;;;;;2.38;1.15;;;23.20;92.70;;;;;;5082245;28;45274;-70
2023/06/30 06:32:33;;;;;;;1.52;0.90;;;23.20;92.70;;;;;;5080186;28;48254;-70
2023/06/30 06:35:01;;;;;;;2.13;0.90;;;23.20;92.60;;;;;;5079644;28;45529;-70
2023/06/30 06:37:27;;;;;;;1.65;0.80;;;23.20;92.60;;;;;;5084271;28;45356;-70
2023/06/30 06:39:54;;;;;;;1.25;0.80;;;23.20;92.40;;;;;;5083694;28;45431;-69
2023/06/30 06:42:21;;;;;;;1.30;0.80;;;23.20;92.30;;;;;;5083809;27;46435;-70
2023/06/30 06:44:47;;;;;;;2.80;0.80;;;23.20;92.20;;;;;;5077210;27;45465;-70
2023/06/30 06:47:52;;;;;;;1.33;0.80;;;23.20;92.30;;;;;;5085431;27;45392;-70
2023/06/30 06:50:21;;;;;;;1.58;1.08;;;23.20;92.00;;;;;;5079689;28;45502;-70
2023/06/30 06:52:48;;;;;;;1.35;0.88;;;23.20;92.10;;;;;;5091197;27;45238;-72
2023/06/30 06:55:14;;;;;;;2.60;0.80;;;23.20;91.90;;;;;;5088564;28;45233;-73
2023/06/30 06:57:41;;;;;;;1.25;0.90;;;23.20;91.80;;;;;;5088930;28;45339;-71
2023/06/30 07:00:09;;;;;;;1.23;0.70;;;23.20;91.90;;;;;;5086525;27;45294;-73
2023/06/30 07:02:36;;;;;;;1.13;0.77;;;23.20;91.70;;;;;;5088278;28;48500;-73
2023/06/30 07:05:02;;;;;;;2.25;0.80;;;23.20;91.70;;;;;;5088850;28;45287;-72
2023/06/30 07:07:31;;;;;;;1.58;0.80;;;23.20;91.70;;;;;;5087878;28;45456;-71
2023/06/30 07:09:57;;;;;;;0.98;0.80;;;23.20;91.70;;;;;;5086908;28;45488;-70
2023/06/30 07:12:24;;;;;;;1.33;0.80;;;23.20;91.60;;;;;;5085039;28;45270;-71
2023/06/30 07:14:51;;;;;;;2.13;1.05;;;23.20;91.50;;;;;;5082175;28;45478;-70
2023/06/30 07:17:18;;;;;;;1.77;0.75;;;23.20;91.40;;;;;;5085591;28;45302;-71
2023/06/30 07:19:44;;;;;;;1.55;0.70;;;23.20;91.50;;;;;;5085337;28;45266;-70
2023/06/30 07:22:11;;;;;;;2.78;0.90;;;23.20;91.40;;;;;;5083792;28;47531;-70
2023/06/30 07:24:39;;;;;;;0.90;0.55;;;23.20;91.50;;;;;;5082599;28;46265;-70
2023/06/30 07:27:07;;;;;;;2.38;0.80;;;23.20;91.60;;;;;;5085114;28;45495;-70
2023/06/30 07:29:33;;;;;;;1.13;0.68;;;23.20;91.50;;;;;;5084694;27;45234;-70
2023/06/30 07:32:00;;;;;;;1.20;0.85;;;23.20;91.50;;;;;;5081249;27;46274;-70
2023/06/30 07:34:29;;;;;;;1.70;0.95;;;23.20;91.40;;;;;;5085119;27;45281;-69
2023/06/30 07:36:56;;;;;;;1.67;0.70;;;23.20;91.40;;;;;;5091485;27;45475;-69
2023/06/30 07:39:22;;;;;;;0.70;0.70;;;23.20;91.50;;;;;;5083411;27;45542;-70
2023/06/30 07:41:51;;;;;;;2.08;0.60;;;23.20;91.20;;;;;;5087683;27;46077;-70
2023/06/30 07:44:19;;;;;;;2.40;0.70;;;23.20;91.00;;;;;;5081174;27;45878;-70
2023/06/30 07:46:46;;;;;;;1.02;0.57;;;23.20;91.00;;;;;;5086399;27;45431;-70
2023/06/30 07:49:13;;;;;;;1.30;0.52;;;23.20;90.90;;;;;;5084860;27;45575;-71
2023/06/30 07:51:40;;;;;;;1.42;0.85;;;23.20;90.70;;;;;;5090084;27;47441;-70
2023/06/30 07:54:07;;;;;;;0.77;0.68;;;23.20;90.70;;;;;;5069891;27;45463;-70
2023/06/30 07:56:34;;;;;;;0.50;0.50;;;23.20;90.70;;;;;;5070638;27;45734;-71
2023/06/30 07:59:02;;;;;;;1.75;0.60;;;23.20;90.40;;;;;;5082334;28;45541;-70
2023/06/30 08:01:29;;;;;;;2.25;0.80;;;23.20;90.20;;;;;;5089852;27;46388;-70
2023/06/30 08:03:57;;;;;;;2.08;0.73;;;23.20;90.20;;;;;;5087139;27;45461;-69
2023/06/30 08:06:24;;;;;;;1.13;0.88;;;23.20;90.00;;;;;;5083743;28;45270;-69
2023/06/30 08:08:50;;;;;;;1.35;0.60;;;23.30;90.10;;;;;;5082296;28;45418;-70
2023/06/30 08:11:17;;;;;;;2.08;0.70;;;23.20;89.70;;;;;;5073617;27;45819;-69
2023/06/30 08:13:44;;;;;;;1.33;0.45;;;23.30;89.80;;;;;;5080350;28;45387;-73
2023/06/30 08:16:12;;;;;;;0.60;0.60;;;23.20;89.40;;;;;;5086830;28;45355;-73
2023/06/30 08:18:39;;;;;;;3.22;0.68;;;23.20;89.40;;;;;;5087366;28;45401;-73
2023/06/30 08:21:06;;;;;;;1.48;0.70;;;23.30;89.30;;;;;;5072596;28;47379;-73
2023/06/30 08:23:33;;;;;;;1.77;0.77;;;23.20;89.40;;;;;;5077175;28;45269;-72
2023/06/30 08:26:00;;;;;;;0.60;0.50;;;23.30;89.70;;;;;;5087291;28;45384;-73
2023/06/30 08:28:26;;;;;;;1.23;0.60;;;23.20;89.80;;;;;;5087313;28;45388;-73
2023/06/30 08:30:53;;;;;;;1.15;0.50;;;23.20;90.00;;;;;;5086448;28;46270;-73
2023/06/30 08:33:27;;;;;;;1.52;0.70;;;23.20;90.00;;;;;;5086600;28;45473;-73
2023/06/30 08:35:53;;;;;;;0.93;0.52;;;23.20;90.10;;;;;;5071724;28;45360;-73
2023/06/30 08:38:20;;;;;;;1.02;0.52;;;23.20;90.10;;;;;;5087009;28;45362;-72
2023/06/30 08:40:47;;;;;;;1.10;0.60;;;23.30;90.20;;;;;;5085663;28;47365;-71
2023/06/30 08:43:14;;;;;;;0.60;0.50;;;23.30;90.20;;;;;;5077257;28;45404;-71
2023/06/30 08:45:44;;;;;;;0.98;0.52;;;23.20;90.00;;;;;;5084266;28;45443;-72
2023/06/30 08:48:12;;;;;;;1.30;0.75;;;23.30;90.00;;;;;;5075401;28;45779;-70
2023/06/30 08:50:40;;;;;;;1.13;0.63;;;23.20;89.70;;;;;;5082069;28;47150;-70
2023/06/30 08:53:07;;;;;;;0.57;0.57;;;23.20;89.80;;;;;;5077439;27;45383;-70
2023/06/30 08:55:34;;;;;;;0.80;0.57;;;23.20;89.60;;;;;;5072089;28;45260;-70
2023/06/30 08:58:01;;;;;;;0.95;0.50;;;23.30;89.30;;;;;;5085724;27;45424;-72
2023/06/30 09:00:28;;;;;;;1.67;0.60;;;23.20;89.10;;;;;;5083927;28;48429;-71
2023/06/30 09:02:57;;;;;;;0.95;0.65;;;23.30;89.30;;;;;;5083401;28;45324;-71
2023/06/30 09:05:25;;;;;;;2.38;0.70;;;23.20;89.10;;;;;;5081886;27;45369;-71
2023/06/30 09:07:55;;;;;;;0.70;0.55;;;23.30;88.90;;;;;;5083658;28;45418;-70
2023/06/30 09:10:23;;;;;;;1.38;0.47;;;23.20;88.50;;;;;;5077871;28;47519;-70
2023/06/30 09:12:54;;;;;;;1.60;0.50;;;23.20;88.30;;;;;;5076784;28;45374;-70
2023/06/30 09:15:21;;;;;;;1.02;0.70;;;23.20;88.00;;;;;;5083043;28;45423;-70
2023/06/30 09:17:49;;;;;;;0.90;0.55;;;23.30;88.40;;;;;;5079876;27;45237;-70
2023/06/30 09:20:16;;;;;;;1.95;0.68;;;23.20;88.20;;;;;;5075837;28;48558;-70
2023/06/30 09:22:43;;;;;;;1.02;0.50;;;23.20;88.50;;;;;;5074402;28;45294;-69
2023/06/30 09:25:39;;;;;;;0.95;0.47;;;23.20;88.60;;;;;;5077917;28;45293;-70
2023/06/30 09:28:09;;;;;;;1.67;0.65;;;23.20;88.90;;;;;;5075220;28;45290;-70
2023/06/30 09:30:38;;;;;;;1.00;0.50;;;23.20;88.60;;;;;;5081663;28;45411;-70
2023/06/30 09:33:07;;;;;;;1.63;0.60;;;23.20;88.90;;;;;;5083293;28;45320;-70
2023/06/30 09:35:38;;;;;;;1.15;0.50;;;23.20;88.70;;;;;;5079962;28;45430;-70
2023/06/30 09:38:09;;;;;;;1.02;0.70;;;23.20;88.90;;;;;;5076939;28;45387;-70
2023/06/30 09:40:37;;;;;;;1.83;0.60;;;23.20;89.00;;;;;;5077970;28;46525;-69
2023/06/30 09:43:07;;;;;;;1.50;0.60;;;23.20;88.70;;;;;;5076230;28;45328;-69
2023/06/30 09:45:34;;;;;;;0.65;0.50;;;23.30;88.70;;;;;;5078288;28;45284;-70
2023/06/30 09:48:01;;;;;;;1.27;0.50;;;23.30;88.20;;;;;;5081690;28;45320;-71
2023/06/30 09:50:30;;;;;;;0.88;0.45;;;23.30;87.80;;;;;;5081399;28;46360;-70
2023/06/30 09:52:57;;;;;;;1.33;0.65;;;23.30;87.80;;;;;;5075951;28;45375;-70
2023/06/30 09:55:24;;;;;;;1.50;0.70;;;23.30;87.90;;;;;;5080302;28;45617;-70
2023/06/30 09:57:56;;;;;;;1.10;0.50;;;23.30;87.80;;;;;;5082803;28;45343;-69
2023/06/30 10:00:25;;;;;;;0.63;0.60;;;23.30;87.50;;;;;;5082090;28;48409;-70
2023/06/30 10:03:03;;;;;;;0.70;0.50;;;23.30;87.00;;;;;;5077097;28;45217;-69
2023/06/30 10:05:30;;;;;;;1.70;0.70;;;23.30;86.80;;;;;;5082875;28;45332;-70
2023/06/30 10:07:58;;;;;;;0.60;0.43;;;23.30;86.40;;;;;;5079673;28;45446;-70
2023/06/30 10:10:26;;;;;;;1.85;0.85;;;23.30;86.50;;;;;;5080485;28;47568;-70
2023/06/30 10:12:56;;;;;;;1.92;0.60;;;23.30;86.20;;;;;;5080958;28;45492;-70
2023/06/30 10:15:23;;;;;;;0.60;0.50;;;23.30;85.80;;;;;;5081572;28;45347;-70
2023/06/30 10:17:50;;;;;;;0.68;0.60;;;23.30;85.60;;;;;;5082687;28;45248;-70
2023/06/30 10:20:18;;;;;;;0.63;0.43;;;23.30;85.60;;;;;;5081543;28;46146;-70
2023/06/30 10:22:45;;;;;;;0.93;0.60;;;23.30;86.70;;;;;;5078750;28;45345;-71
2023/06/30 10:25:14;;;;;;;1.25;0.50;;;23.30;86.00;;;;;;5078932;28;45430;-70
2023/06/30 10:27:42;;;;;;;1.00;0.50;;;23.30;86.10;;;;;;5078097;28;45568;-70
2023/06/30 10:30:13;;;;;;;0.93;0.40;;;23.20;86.30;;;;;;5073566;28;46586;-70
2023/06/30 10:32:40;;;;;;;1.52;0.70;;;23.30;85.90;;;;;;5079852;28;45463;-70
2023/06/30 10:35:09;;;;;;;0.88;0.57;;;23.30;85.90;;;;;;5080044;28;45403;-69
2023/06/30 10:37:36;;;;;;;0.75;0.50;;;23.30;85.60;;;;;;5080522;28;45412;-70
2023/06/30 10:40:07;;;;;;;0.82;0.50;;;23.30;86.80;;;;;;5081309;28;45441;-70
2023/06/30 10:42:37;;;;;;;0.75;0.50;;;23.30;86.40;;;;;;5080665;28;45341;-70
2023/06/30 10:45:05;;;;;;;0.68;0.50;;;23.30;86.20;;;;;;5082511;28;45412;-69
2023/06/30 10:47:39;;;;;;;0.93;0.60;;;23.30;85.80;;;;;;5079969;28;45478;-70
2023/06/30 10:50:12;;;;;;;0.68;0.40;;;23.30;85.50;;;;;;5079724;28;46558;-70
2023/06/30 10:52:48;;;;;;;0.82;0.50;;;23.30;85.00;;;;;;5082049;28;45309;-70
2023/06/30 10:55:15;;;;;;;1.75;0.43;;;23.30;85.00;;;;;;5075470;28;45584;-70
2023/06/30 10:57:41;;;;;;;1.30;0.57;;;23.30;84.60;;;;;;5080666;28;45384;-70
2023/06/30 11:00:11;;;;;;;0.60;0.50;;;23.30;84.30;;;;;;5080748;28;46253;-69
2023/06/30 11:02:48;;;;;;;0.60;0.60;;;23.30;83.90;;;;;;5079734;28;45307;-70
2023/06/30 11:05:23;;;;;;;1.50;0.68;;;23.30;83.70;;;;;;5080799;28;45411;-69
2023/06/30 11:07:52;;;;;;;0.85;0.50;;;23.40;83.80;;;;;;5074074;28;45593;-69
2023/06/30 11:10:34;;;;;;;0.77;0.47;;;23.30;83.70;;;;;;5080650;28;47827;-70
2023/06/30 11:13:02;;;;;;;1.17;0.55;;;23.40;83.30;;;;;;5074315;28;45367;-70
2023/06/30 11:15:35;;;;;;;1.02;0.60;;;23.30;83.30;;;;;;5080386;28;45243;-70
2023/06/30 11:18:05;;;;;;;0.52;0.40;;;23.30;83.00;;;;;;5080165;28;45346;-70
2023/06/30 11:20:32;;;;;;;0.90;0.63;;;23.30;82.60;;;;;;5080671;27;45472;-70
2023/06/30 11:23:01;;;;;;;1.90;0.60;;;23.30;83.00;;;;;;5083795;28;45570;-70
2023/06/30 11:25:28;;;;;;;0.75;0.50;;;23.30;83.30;;;;;;5082702;28;45348;-70
2023/06/30 11:27:56;;;;;;;1.52;0.52;;;23.30;83.30;;;;;;5084119;28;45470;-70
2023/06/30 11:30:23;;;;;;;1.08;0.57;;;23.30;83.50;;;;;;5083683;28;47527;-70
2023/06/30 11:32:56;;;;;;;0.75;0.50;;;23.30;83.40;;;;;;5075293;28;45305;-71
2023/06/30 11:35:25;;;;;;;1.08;0.70;;;23.30;83.60;;;;;;5083719;28;45604;-70
2023/06/30 11:37:53;;;;;;;0.50;0.50;;;23.30;83.40;;;;;;5076908;28;45524;-70
2023/06/30 11:40:21;;;;;;;0.88;0.60;;;23.30;83.30;;;;;;5084078;28;46586;-69
2023/06/30 11:42:48;;;;;;;2.38;0.52;;;23.30;83.30;;;;;;5077917;28;45509;-70
2023/06/30 11:45:19;;;;;;;1.10;0.70;;;23.30;83.20;;;;;;5083974;28;45270;-70
2023/06/30 11:47:50;;;;;;;1.23;0.70;;;23.30;82.90;;;;;;5079196;28;45459;-70
2023/06/30 11:50:17;;;;;;;1.65;0.55;;;23.30;82.00;;;;;;5082942;28;47399;-69
2023/06/30 11:52:47;;;;;;;0.82;0.50;;;23.30;82.10;;;;;;5085268;27;45449;-70
2023/06/30 11:55:15;;;;;;;1.02;0.63;;;23.30;81.70;;;;;;5081834;27;45470;-70
2023/06/30 11:57:46;;;;;;;0.50;0.50;;;23.30;81.20;;;;;;5087999;27;45344;-70
2023/06/30 12:00:14;;;;;;;0.57;0.50;;;23.30;81.40;;;;;;5075018;28;46994;-70
2023/06/30 12:02:46;;;;;;;0.63;0.45;;;23.30;81.30;;;;;;5075159;28;45281;-69
2023/06/30 12:05:16;;;;;;;1.08;0.50;;;23.40;81.70;;;;;;5079767;28;45257;-70
2023/06/30 12:07:45;;;;;;;2.00;0.80;;;23.30;81.40;;;;;;5071109;28;45610;-70
2023/06/30 12:10:12;;;;;;;0.85;0.65;;;23.40;81.20;;;;;;5066276;28;46357;-70
2023/06/30 12:12:39;;;;;;;1.15;0.50;;;23.40;81.20;;;;;;5080887;28;45367;-69
2023/06/30 12:15:09;;;;;;;1.20;0.60;;;23.40;81.20;;;;;;5081168;27;45557;-70
2023/06/30 12:17:42;;;;;;;1.08;0.60;;;23.30;81.10;;;;;;5078847;27;45637;-70
2023/06/30 12:20:09;;;;;;;0.95;0.50;;;23.40;81.40;;;;;;5085725;27;47673;-70
2023/06/30 12:22:38;;;;;;;1.60;0.73;;;23.30;81.50;;;;;;5083356;27;45515;-70
2023/06/30 12:25:11;;;;;;;1.00;0.60;;;23.30;81.20;;;;;;5084860;27;45398;-70
2023/06/30 12:27:41;;;;;;;0.93;0.40;;;23.40;81.30;;;;;;5082887;28;45582;-69
2023/06/30 12:30:15;;;;;;;1.02;0.43;;;23.30;81.10;;;;;;5066120;28;47740;-70
2023/06/30 12:32:43;;;;;;;1.65;0.60;;;23.30;81.40;;;;;;5087271;27;45269;-69
2023/06/30 12:35:10;;;;;;;1.08;0.43;;;23.30;81.10;;;;;;5089516;27;45285;-69
2023/06/30 12:37:38;;;;;;;0.57;0.50;;;23.30;81.10;;;;;;5089695;27;45502;-69
2023/06/30 12:40:08;;;;;;;0.52;0.52;;;23.40;81.90;;;;;;5089054;27;46317;-70
2023/06/30 12:42:35;;;;;;;0.88;0.73;;;23.40;82.20;;;;;;5092960;27;45747;-70
2023/06/30 12:45:03;;;;;;;1.45;0.80;;;23.40;82.20;;;;;;5092659;27;45411;-70
2023/06/30 12:47:30;;;;;;;0.95;0.70;;;23.40;81.90;;;;;;5086303;27;45320;-69
2023/06/30 12:49:56;;;;;;;0.80;0.50;;;23.30;81.10;;;;;;5090403;27;47609;-70
2023/06/30 12:52:23;;;;;;;0.80;0.60;;;23.40;82.20;;;;;;5086043;27;45309;-70